Terminal Aerodrome Forecast
Issued by NWS

Home | Current Version | Previous Version | Graphics & Text | Print | Product List | Glossary On
Versions: 1 2 3 4 5 6 7 8 9 10 11 12 13 14 15 16
000
FTUS42 KMHX 240850 AAA
TAFOAJ
TAF AMD
KOAJ 240850Z 2409/2506 06008KT 5SM -SHRA OVC004
      TEMPO 2409/2411 OVC002
     FM241100 08008KT 5SM -SHRA SCT007 OVC010
     FM241500 12010G20KT 5SM -SHRA OVC035
     FM250000 09011G20KT 2SM +SHRA VCTS SCT007 OVC025CB
      AMD LTD TO CLD VIS AND WIND=

USA.gov is the U.S. government's official web portal to all federal, state and local government web resources and services.